This is the latest recevied weather packets stored in our database for station/object OK2ILA-6. If no packets are shown the sender has not sent any weather packets the latest 10 day(s).
| Time | Temp. | Humidity | Pressure | Rain* | Wind** | Luminosity | Snow |
|---|---|---|---|---|---|---|---|
| 1788535203 | 28.89° C | 47% | 1010.9 hPa | - | - | - | - |
| 1788532803 | 27.78° C | 48% | 1011.8 hPa | - | - | - | - |
| 1788532203 | 28.33° C | 49% | 1011.8 hPa | - | - | - | - |
| 1788529803 | 27.78° C | 48% | 1012.4 hPa | - | - | - | - |
| 1788527403 | 27.78° C | 49% | 1012.7 hPa | - | - | - | - |
| 1788525003 | 26.67° C | 54% | 1013.4 hPa | - | - | - | - |
| 1788524403 | 26.67° C | 54% | 1013.4 hPa | - | - | - | - |
| 1788523803 | 26.67° C | 54% | 1013.7 hPa | - | - | - | - |
| 1788522003 | 27.78° C | 52% | 1014.2 hPa | - | - | - | - |
| 1788521403 | 27.78° C | 53% | 1014.4 hPa | - | - | - | - |
| 1788520803 | 26.67° C | 55% | 1014.6 hPa | - | - | - | - |
| 1788518403 | 25.56° C | 58% | 1015.1 hPa | - | - | - | - |
| 1788517802 | 25.56° C | 58% | 1015.2 hPa | - | - | - | - |
| 1788515403 | 24.44° C | 58% | 1015.8 hPa | - | - | - | - |
| 1788514802 | 25.56° C | 56% | 1016 hPa | - | - | - | - |
| 1788514203 | 25.56° C | 57% | 1016 hPa | - | - | - | - |
| 1788512403 | 26.11° C | 54% | 1016.2 hPa | - | - | - | - |
| 1788511203 | 25° C | 58% | 1016.5 hPa | - | - | - | - |
| 1788510603 | 24.44° C | 58% | 1016.5 hPa | - | - | - | - |
| 1788510003 | 24.44° C | 59% | 1016.4 hPa | - | - | - | - |
| 1788509403 | 24.44° C | 60% | 1016.6 hPa | - | - | - | - |
| 1788508802 | 23.33° C | 62% | 1016.8 hPa | - | - | - | - |
| 1788507603 | 22.22° C | 65% | 1016.9 hPa | - | - | - | - |
| 1788507003 | 22.22° C | 66% | 1016.8 hPa | - | - | - | - |
| 1788506403 | 21.11° C | 68% | 1016.7 hPa | - | - | - | - |
* Rain since midnight (hover to see other rain measurements)
** Current wind speed in m/s (hover to see current wind gust speed)